Aviation Digital Data Service (ADDS)

Output produced by METARs form (1902 UTC 28 November 2022)
found at http://aviationweather.gov/metar/data/
 
METAR text: EGJB 281850Z 30010KT 9999 VCSH FEW018CB SCT022 11/07 Q1014
Conditions at: EGJB (GUERNSEY AIRPORT, GG) observed 1850 UTC 28 November 2022
Temperature: 11.0°C (52°F)
Dewpoint: 7.0°C (45°F) [RH = 76%]
Pressure (altimeter): 29.94 inches Hg (1014.0 mb)
Winds: from the WNW (300 degrees) at 12 MPH (10 knots; 5.1 m/s)
Visibility: 6 or more miles (10+ km)
Ceiling: at least 12,000 feet AGL
Clouds: few clouds at 1800 feet AGL
scattered clouds at 2200 feet AGL
Weather: VCSH  (showers in vicinity)

METAR text: EGJB 281820Z 29012KT 9999 VCSH FEW018CB SCT022 10/06 Q1013
Conditions at: EGJB (GUERNSEY AIRPORT, GG) observed 1820 UTC 28 November 2022
Temperature: 10.0°C (50°F)
Dewpoint: 6.0°C (43°F) [RH = 76%]
Pressure (altimeter): 29.91 inches Hg (1013.0 mb)
Winds: from the WNW (290 degrees) at 14 MPH (12 knots; 6.2 m/s)
Visibility: 6 or more miles (10+ km)
Ceiling: at least 12,000 feet AGL
Clouds: few clouds at 1800 feet AGL
scattered clouds at 2200 feet AGL
Weather: VCSH  (showers in vicinity)

Forecast for: EGJB (GUERNSEY AIRPORT, GG)
Text: TAF EGJB 281704Z 2818/2903 32012KT 9999 FEW015
Forecast period: 1800 UTC 28 November 2022 to 0300 UTC 29 November 2022
Forecast type: FROM: standard forecast or significant change
Winds: from the NW (320 degrees) at 14 MPH (12 knots; 6.2 m/s)
Visibility: 6 or more miles (10+ km)
Ceiling: at least 12,000 feet AGL
Clouds: few clouds at 1500 feet AGL
Weather: no significant weather forecast for this period
Text: PROB40
Forecast period: 1800 UTC 28 November 2022 to 0300 UTC 29 November 2022
Forecast type: TEMPORARY: The following changes expected for less than half the time period
Visibility: 5 miles (8 km)
Ceiling: 1500 feet AGL
Clouds: broken clouds at 1500 feet AGL
Weather: -SHRA  (light rain showers)
Text: TEMPO 2818/2903 8000 -SHRA BKN015
Forecast period: 1800 to 2000 UTC 28 November 2022
Forecast type: TEMPORARY: The following changes expected for less than half the time period
Winds: from the NW (310 degrees) at 17 MPH (15 knots; 7.7 m/s)
gusting to 29 MPH (25 knots; 12.9 m/s)
Visibility: 4 miles (6 km)
Ceiling: 1500 feet AGL
Clouds: broken clouds at 1500 feet AGL
Weather: SHRA  (rain showers)